Time;durP1;ratioP1;P1;durP2;ratioP2;P2;SDS_P1;SDS_P2;PMS_P1;PMS_P2;Temp;Humidity;BMP_temperature;BMP_pressure;BME280_temperature;BME280_humidity;BME280_pressure;Samples;Min_cycle;Max_cycle;Signal;HPM_P1;HPM_P2
2023/07/22 00:01:37;;;;;;;0.00;0.00;;;;;;;11.69;nan;100255.03;4901541;29;20512;-74
2023/07/22 00:04:03;;;;;;;0.00;0.00;;;;;;;11.77;nan;100252.81;4928607;29;20031;-75
2023/07/22 00:06:28;;;;;;;0.00;0.00;;;;;;;11.82;nan;100247.34;4899290;29;20040;-74
2023/07/22 00:08:54;;;;;;;0.00;0.00;;;;;;;11.88;nan;100246.22;4913187;29;20115;-74
2023/07/22 00:11:19;;;;;;;0.00;0.00;;;;;;;11.93;nan;100243.50;4906090;29;20082;-74
2023/07/22 00:13:45;;;;;;;0.00;0.00;;;;;;;11.99;nan;100236.09;4912505;29;20092;-73
2023/07/22 00:16:11;;;;;;;0.00;0.00;;;;;;;12.02;nan;100247.28;4914800;29;20036;-73
2023/07/22 00:18:36;;;;;;;0.00;0.00;;;;;;;12.08;nan;100244.56;4895414;29;20028;-73
2023/07/22 00:21:02;;;;;;;0.00;0.00;;;;;;;12.10;nan;100243.16;4909797;29;20039;-73
2023/07/22 00:23:27;;;;;;;0.00;0.00;;;;;;;12.13;nan;100236.28;4893276;29;20172;-73
2023/07/22 00:25:53;;;;;;;0.00;0.00;;;;;;;12.19;nan;100246.97;4902220;29;20118;-74
2023/07/22 00:28:18;;;;;;;0.00;0.00;;;;;;;12.20;nan;100237.63;4905095;29;20044;-73
2023/07/22 00:30:44;;;;;;;0.00;0.00;;;;;;;12.29;nan;100240.59;4919041;29;20123;-74
2023/07/22 00:33:09;;;;;;;0.00;0.00;;;;;;;12.32;nan;100234.53;4909872;29;20040;-75
2023/07/22 00:35:35;;;;;;;0.00;0.00;;;;;;;12.42;nan;100233.66;4909736;29;20793;-75
2023/07/22 00:38:01;;;;;;;0.00;0.00;;;;;;;12.46;nan;100236.69;4919276;29;20033;-75
2023/07/22 00:40:27;;;;;;;0.00;0.00;;;;;;;12.40;nan;100220.25;4911192;29;20057;-74
2023/07/22 00:42:53;;;;;;;0.00;0.00;;;;;;;12.35;nan;100228.53;4900709;29;20100;-75
2023/07/22 00:45:18;;;;;;;0.00;0.00;;;;;;;12.25;nan;100219.50;4905750;29;20037;-74
2023/07/22 00:47:45;;;;;;;0.00;0.00;;;;;;;12.15;nan;100218.47;4908041;29;20028;-74
2023/07/22 00:50:10;;;;;;;0.00;0.00;;;;;;;12.08;nan;100223.44;4910178;29;20032;-75
2023/07/22 00:52:37;;;;;;;0.00;0.00;;;;;;;12.01;nan;100218.25;4907546;29;20032;-72
2023/07/22 00:55:04;;;;;;;0.00;0.00;;;;;;;11.98;nan;100224.28;4902203;29;20038;-75
2023/07/22 00:57:30;;;;;;;0.00;0.00;;;;;;;11.97;nan;100216.34;4918860;29;20032;-74
2023/07/22 00:59:56;;;;;;;0.00;0.00;;;;;;;11.94;nan;100206.75;4909124;29;20031;-75
2023/07/22 01:02:23;;;;;;;0.00;0.00;;;;;;;11.92;nan;100203.47;4912961;29;20024;-74
2023/07/22 01:04:50;;;;;;;0.00;0.00;;;;;;;11.93;nan;100210.63;4912019;29;20043;-73
2023/07/22 01:07:15;;;;;;;0.00;0.00;;;;;;;11.96;nan;100204.59;4905954;29;20031;-75
2023/07/22 01:09:42;;;;;;;0.00;0.00;;;;;;;11.95;nan;100197.44;4900446;29;20103;-73
2023/07/22 01:12:08;;;;;;;0.00;0.00;;;;;;;11.98;nan;100196.06;4906114;29;20127;-74
2023/07/22 01:14:38;;;;;;;0.00;0.00;;;;;;;12.03;nan;100191.41;4907233;29;20035;-73
2023/07/22 01:17:07;;;;;;;0.00;0.00;;;;;;;12.03;nan;100185.91;4928787;29;20403;-74
2023/07/22 01:19:33;;;;;;;0.00;0.00;;;;;;;12.22;nan;100185.25;4914318;29;20020;-75
2023/07/22 01:22:05;;;;;;;0.00;0.00;;;;;;;12.33;nan;100191.50;4895308;29;20058;-73
2023/07/22 01:24:31;;;;;;;0.00;0.00;;;;;;;12.40;nan;100176.38;4905171;29;20482;-73
2023/07/22 01:26:58;;;;;;;0.00;0.00;;;;;;;12.53;nan;100185.88;4907572;29;20028;-73
2023/07/22 01:29:24;;;;;;;0.00;0.00;;;;;;;12.64;nan;100189.38;4905203;29;20654;-73
2023/07/22 01:31:53;;;;;;;0.00;0.00;;;;;;;12.70;nan;100185.50;4910420;29;20027;-73
2023/07/22 01:34:18;;;;;;;0.00;0.00;;;;;;;12.78;nan;100175.03;4926846;29;20111;-73
2023/07/22 01:36:48;;;;;;;0.00;0.00;;;;;;;12.85;nan;100172.75;4915168;29;20420;-74
2023/07/22 01:39:14;;;;;;;0.00;0.00;;;;;;;12.90;nan;100172.72;4920279;29;20393;-72
2023/07/22 01:41:40;;;;;;;0.00;0.00;;;;;;;12.89;nan;100171.06;4931863;29;20031;-74
2023/07/22 01:44:05;;;;;;;0.00;0.00;;;;;;;12.94;nan;100173.78;4921845;29;20019;-74
2023/07/22 01:46:31;;;;;;;0.00;0.00;;;;;;;12.93;nan;100166.66;4912410;29;20055;-73
2023/07/22 01:48:56;;;;;;;0.00;0.00;;;;;;;12.92;nan;100170.47;4934307;29;20039;-74
2023/07/22 01:51:22;;;;;;;0.00;0.00;;;;;;;12.88;nan;100163.97;4935374;29;20095;-74
2023/07/22 01:53:49;;;;;;;0.00;0.00;;;;;;;12.86;nan;100160.66;4947171;28;20061;-73
2023/07/22 01:56:16;;;;;;;0.00;0.00;;;;;;;12.89;nan;100165.56;4940849;29;20024;-73
2023/07/22 01:58:42;;;;;;;0.00;0.00;;;;;;;12.81;nan;100155.25;4925733;29;20042;-73
2023/07/22 02:01:07;;;;;;;0.00;0.00;;;;;;;12.77;nan;100156.91;4946947;29;20027;-73
2023/07/22 02:03:33;;;;;;;0.00;0.00;;;;;;;12.70;nan;100159.97;4933936;29;20033;-73
2023/07/22 02:06:03;;;;;;;0.00;0.00;;;;;;;12.59;nan;100156.50;4934276;29;20039;-73
2023/07/22 02:08:29;;;;;;;0.00;0.00;;;;;;;12.57;nan;100153.22;4940457;29;20039;-73
2023/07/22 02:10:54;;;;;;;0.00;0.00;;;;;;;12.61;nan;100148.78;4945941;28;20073;-74
2023/07/22 02:13:19;;;;;;;0.00;0.00;;;;;;;12.60;nan;100149.09;4939568;28;20031;-74
2023/07/22 02:15:45;;;;;;;0.00;0.00;;;;;;;12.59;nan;100145.53;4930433;29;20471;-73
2023/07/22 02:18:10;;;;;;;0.00;0.00;;;;;;;12.51;nan;100140.66;4946505;28;20042;-73
2023/07/22 02:20:35;;;;;;;0.00;0.00;;;;;;;12.45;nan;100144.53;4939392;28;20467;-74
2023/07/22 02:23:01;;;;;;;0.00;0.00;;;;;;;12.38;nan;100144.84;4935437;29;20123;-74
2023/07/22 02:25:26;;;;;;;0.00;0.00;;;;;;;12.37;nan;100144.03;4935226;29;20390;-74
2023/07/22 02:27:52;;;;;;;0.00;0.00;;;;;;;12.41;nan;100141.53;4947166;28;20043;-74
2023/07/22 02:30:17;;;;;;;0.00;0.00;;;;;;;12.51;nan;100148.88;4939889;28;20112;-74
2023/07/22 02:32:43;;;;;;;0.00;0.00;;;;;;;12.62;nan;100144.97;4931523;29;20038;-75
2023/07/22 02:35:09;;;;;;;0.00;0.00;;;;;;;12.70;nan;100135.28;4931348;29;20447;-74
2023/07/22 02:37:38;;;;;;;0.00;0.00;;;;;;;12.79;nan;100135.47;4943756;28;20027;-74
2023/07/22 02:40:07;;;;;;;0.00;0.00;;;;;;;12.86;nan;100133.22;4945794;28;20104;-75
2023/07/22 02:42:35;;;;;;;0.00;0.00;;;;;;;12.94;nan;100129.88;4928450;29;20111;-74
2023/07/22 02:45:01;;;;;;;0.00;0.00;;;;;;;12.95;nan;100127.94;4940400;28;20032;-75
2023/07/22 02:47:26;;;;;;;0.00;0.00;;;;;;;12.97;nan;100123.78;4944817;29;20042;-73
2023/07/22 02:49:52;;;;;;;0.00;0.00;;;;;;;12.96;nan;100124.91;4920978;29;20027;-75
2023/07/22 02:52:17;;;;;;;0.00;0.00;;;;;;;12.93;nan;100111.75;4934641;28;20474;-73
2023/07/22 02:55:05;;;;;;;0.00;0.00;;;;;;;12.95;nan;100126.00;4915366;29;20047;-74
2023/07/22 02:57:31;;;;;;;0.00;0.00;;;;;;;12.85;nan;100112.38;4938842;29;20031;-74
2023/07/22 02:59:56;;;;;;;0.00;0.00;;;;;;;12.83;nan;100122.84;4929093;29;20111;-74
2023/07/22 03:02:22;;;;;;;0.00;0.00;;;;;;;12.68;nan;100119.13;4951256;29;20102;-75
2023/07/22 03:04:47;;;;;;;0.00;0.00;;;;;;;12.57;nan;100110.16;4926520;29;20043;-75
2023/07/22 03:07:12;;;;;;;0.00;0.00;;;;;;;12.47;nan;100109.41;4917901;29;20031;-75
2023/07/22 03:09:38;;;;;;;0.00;0.00;;;;;;;12.34;nan;100108.16;4947555;29;20031;-74
2023/07/22 03:12:04;;;;;;;0.00;0.00;;;;;;;12.28;nan;100107.38;4923834;28;20190;-74
2023/07/22 03:14:29;;;;;;;0.00;0.00;;;;;;;12.22;nan;100108.50;4950955;29;20059;-75
2023/07/22 03:16:54;;;;;;;0.00;0.00;;;;;;;12.11;nan;100098.72;4935282;29;20027;-74
2023/07/22 03:19:20;;;;;;;0.00;0.00;;;;;;;12.14;nan;100100.88;4926180;28;20039;-74
2023/07/22 03:21:46;;;;;;;0.00;0.00;;;;;;;12.14;nan;100095.41;4926967;29;20020;-74
2023/07/22 03:24:11;;;;;;;0.00;0.00;;;;;;;12.15;nan;100097.88;4932375;29;20126;-74
2023/07/22 03:26:37;;;;;;;0.00;0.00;;;;;;;12.21;nan;100098.66;4941515;28;20031;-74
2023/07/22 03:29:04;;;;;;;0.00;0.00;;;;;;;12.22;nan;100103.84;4920877;29;20075;-74
2023/07/22 03:31:30;;;;;;;0.00;0.00;;;;;;;12.23;nan;100099.16;4933945;29;20027;-74
2023/07/22 03:33:55;;;;;;;0.00;0.00;;;;;;;12.24;nan;100106.31;4924259;29;20038;-74
2023/07/22 03:36:21;;;;;;;0.00;0.00;;;;;;;12.19;nan;100112.66;4944715;28;20212;-74
2023/07/22 03:38:46;;;;;;;0.00;0.00;;;;;;;12.08;nan;100102.84;4948544;28;20998;-74
2023/07/22 03:41:12;;;;;;;0.00;0.00;;;;;;;12.02;nan;100104.78;4917339;29;20038;-74
2023/07/22 03:43:37;;;;;;;0.00;0.00;;;;;;;12.03;nan;100106.44;4930938;29;20114;-74
2023/07/22 03:46:02;;;;;;;0.00;0.00;;;;;;;12.01;nan;100108.63;4918326;29;20126;-74
2023/07/22 03:48:28;;;;;;;0.00;0.00;;;;;;;11.96;nan;100107.84;4948668;29;20387;-74
2023/07/22 03:50:53;;;;;;;0.00;0.00;;;;;;;11.91;nan;100103.19;4921541;29;20056;-73
2023/07/22 03:53:19;;;;;;;0.00;0.00;;;;;;;11.88;nan;100095.53;4922310;29;20059;-73
2023/07/22 03:55:44;;;;;;;0.00;0.00;;;;;;;11.87;nan;100093.88;4951207;28;20438;-73
2023/07/22 03:58:10;;;;;;;0.00;0.00;;;;;;;11.83;nan;100098.31;4951669;28;20035;-73
2023/07/22 04:00:37;;;;;;;0.00;0.00;;;;;;;11.79;nan;100089.00;4932434;29;20034;-74
2023/07/22 04:03:03;;;;;;;0.00;0.00;;;;;;;11.80;nan;100101.63;4946948;29;20036;-74
2023/07/22 04:05:28;;;;;;;0.00;0.00;;;;;;;11.80;nan;100096.94;4920880;29;20446;-74
2023/07/22 04:07:54;;;;;;;0.00;0.00;;;;;;;11.74;nan;100097.25;4952733;28;20169;-74
2023/07/22 04:10:19;;;;;;;0.00;0.00;;;;;;;11.70;nan;100095.06;4937047;28;20062;-74
2023/07/22 04:12:44;;;;;;;0.00;0.00;;;;;;;11.66;nan;100091.25;4929225;29;20485;-73
2023/07/22 04:15:11;;;;;;;0.00;0.00;;;;;;;11.63;nan;100099.22;4950868;29;20039;-75
2023/07/22 04:17:36;;;;;;;0.00;0.00;;;;;;;11.59;nan;100090.72;4942585;28;20027;-73
2023/07/22 04:20:02;;;;;;;0.00;0.00;;;;;;;11.52;nan;100087.47;4943920;29;20031;-74
2023/07/22 04:22:28;;;;;;;0.00;0.00;;;;;;;11.52;nan;100082.00;4909745;29;20490;-73
2023/07/22 04:24:54;;;;;;;0.00;0.00;;;;;;;11.53;nan;100079.00;4946871;29;20020;-73
2023/07/22 04:27:19;;;;;;;0.00;0.00;;;;;;;11.51;nan;100072.16;4927361;29;20119;-74
2023/07/22 04:29:47;;;;;;;0.00;0.00;;;;;;;11.51;nan;100072.16;4901829;29;20032;-73
2023/07/22 04:32:13;;;;;;;0.00;0.00;;;;;;;11.52;nan;100076.53;4946637;28;20038;-73
2023/07/22 04:34:39;;;;;;;0.00;0.00;;;;;;;11.59;nan;100074.31;4938522;29;20031;-73
2023/07/22 04:37:05;;;;;;;0.00;0.00;;;;;;;11.63;nan;100075.38;4932368;29;20035;-74
2023/07/22 04:39:30;;;;;;;0.00;0.00;;;;;;;11.70;nan;100070.41;4935299;29;20102;-74
2023/07/22 04:41:56;;;;;;;0.00;0.00;;;;;;;11.80;nan;100072.28;4939482;29;20482;-74
2023/07/22 04:44:21;;;;;;;0.00;0.00;;;;;;;11.92;nan;100077.41;4933403;29;20557;-75
2023/07/22 04:46:47;;;;;;;0.00;0.00;;;;;;;12.04;nan;100074.38;4933512;29;20030;-74
2023/07/22 04:49:13;;;;;;;0.00;0.00;;;;;;;12.19;nan;100065.22;4942268;29;20044;-74
2023/07/22 04:51:38;;;;;;;0.00;0.00;;;;;;;12.34;nan;100069.78;4931021;29;20028;-74
2023/07/22 04:54:04;;;;;;;0.00;0.00;;;;;;;12.39;nan;100064.22;4921093;29;20150;-74
2023/07/22 04:56:30;;;;;;;0.00;0.00;;;;;;;12.51;nan;100077.56;4932962;29;20118;-74
2023/07/22 04:58:55;;;;;;;0.00;0.00;;;;;;;12.56;nan;100072.06;4926573;29;20034;-73
2023/07/22 05:01:20;;;;;;;0.00;0.00;;;;;;;12.63;nan;100072.53;4945115;28;20027;-74
2023/07/22 05:03:46;;;;;;;0.00;0.00;;;;;;;12.69;nan;100068.63;4932150;29;20387;-74
2023/07/22 05:06:11;;;;;;;0.00;0.00;;;;;;;12.77;nan;100060.88;4932988;28;20035;-74
2023/07/22 05:08:38;;;;;;;0.00;0.00;;;;;;;12.85;nan;100063.81;4944431;28;20107;-74
2023/07/22 05:11:11;;;;;;;0.00;0.00;;;;;;;12.97;nan;100062.59;4925395;29;20031;-74
2023/07/22 05:13:36;;;;;;;0.00;0.00;;;;;;;13.07;nan;100059.75;4927715;29;20027;-74
2023/07/22 05:16:01;;;;;;;0.00;0.00;;;;;;;13.20;nan;100066.44;4925364;29;20375;-74
2023/07/22 05:18:27;;;;;;;0.00;0.00;;;;;;;13.32;nan;100064.13;4944058;28;20035;-73
2023/07/22 05:20:52;;;;;;;0.00;0.00;;;;;;;13.42;nan;100058.53;4946130;29;20032;-74
2023/07/22 05:23:18;;;;;;;0.00;0.00;;;;;;;13.55;nan;100050.66;4923143;29;20425;-74
2023/07/22 05:25:43;;;;;;;0.00;0.00;;;;;;;13.67;nan;100055.72;4932788;29;20036;-73
2023/07/22 05:28:08;;;;;;;0.00;0.00;;;;;;;13.75;nan;100061.38;4936077;29;20019;-74
2023/07/22 05:30:34;;;;;;;0.00;0.00;;;;;;;13.83;nan;100048.09;4917536;29;20024;-74
2023/07/22 05:32:59;;;;;;;0.00;0.00;;;;;;;13.91;nan;100047.44;4937825;29;20036;-73
2023/07/22 05:35:25;;;;;;;0.00;0.00;;;;;;;14.02;nan;100051.66;4947637;28;20359;-73
2023/07/22 05:37:50;;;;;;;0.00;0.00;;;;;;;14.06;nan;100049.97;4931720;29;20140;-74
2023/07/22 05:40:16;;;;;;;0.00;0.00;;;;;;;14.16;nan;100059.16;4921454;29;20123;-73
2023/07/22 05:42:41;;;;;;;0.00;0.00;;;;;;;14.22;nan;100050.53;4931837;29;20490;-74
2023/07/22 05:45:07;;;;;;;0.00;0.00;;;;;;;14.28;nan;100046.59;4935603;29;20049;-74
2023/07/22 05:47:33;;;;;;;0.00;0.00;;;;;;;14.34;nan;100039.06;4928595;29;20039;-75
2023/07/22 05:49:58;;;;;;;0.00;0.00;;;;;;;14.37;nan;100032.13;4939967;28;20458;-73
2023/07/22 05:52:23;;;;;;;0.00;0.00;;;;;;;14.37;nan;100024.72;4922760;29;20836;-72
2023/07/22 05:54:49;;;;;;;0.00;0.00;;;;;;;14.37;nan;100032.97;4926511;28;20040;-74
2023/07/22 05:57:15;;;;;;;0.00;0.00;;;;;;;14.35;nan;100039.88;4927918;29;20481;-73
2023/07/22 05:59:40;;;;;;;0.00;0.00;;;;;;;14.30;nan;100038.03;4928599;29;20027;-74
2023/07/22 06:02:07;;;;;;;0.00;0.00;;;;;;;14.32;nan;100031.13;4933457;29;20065;-74
2023/07/22 06:04:33;;;;;;;0.00;0.00;;;;;;;14.35;nan;100032.44;4934653;29;20505;-74
2023/07/22 06:06:58;;;;;;;0.00;0.00;;;;;;;14.43;nan;100031.75;4931201;29;20043;-74
2023/07/22 06:09:24;;;;;;;0.00;0.00;;;;;;;14.66;nan;100040.22;4928919;29;20032;-74
2023/07/22 06:11:49;;;;;;;0.00;0.00;;;;;;;14.78;nan;100032.25;4943445;28;20027;-73
2023/07/22 06:14:15;;;;;;;0.00;0.00;;;;;;;14.84;nan;100031.03;4925814;29;20043;-73
2023/07/22 06:16:40;;;;;;;0.00;0.00;;;;;;;14.99;nan;100027.16;4934785;29;20029;-74
2023/07/22 06:19:05;;;;;;;0.00;0.00;;;;;;;15.13;nan;100021.69;4917471;29;20062;-73
2023/07/22 06:21:31;;;;;;;0.00;0.00;;;;;;;15.26;nan;100021.97;4926708;29;20352;-74
2023/07/22 06:23:56;;;;;;;0.00;0.00;;;;;;;15.33;nan;100030.63;4910672;29;20056;-74
2023/07/22 06:26:22;;;;;;;0.00;0.00;;;;;;;15.27;nan;100016.13;4926537;29;20470;-74
2023/07/22 06:28:47;;;;;;;0.00;0.00;;;;;;;15.34;nan;100018.50;4928195;29;20047;-74
2023/07/22 06:31:13;;;;;;;0.00;0.00;;;;;;;15.37;nan;100006.84;4945398;29;20073;-74
2023/07/22 06:33:38;;;;;;;0.00;0.00;;;;;;;15.42;nan;100006.75;4948579;29;20486;-74
2023/07/22 06:36:04;;;;;;;0.00;0.00;;;;;;;15.34;nan;99993.69;4932620;29;20032;-73
2023/07/22 06:38:29;;;;;;;0.00;0.00;;;;;;;15.43;nan;100007.56;4940489;28;20033;-73
2023/07/22 06:40:55;;;;;;;0.00;0.00;;;;;;;15.42;nan;99984.72;4918532;29;20074;-74
2023/07/22 06:43:20;;;;;;;0.00;0.00;;;;;;;15.52;nan;99989.16;4922745;29;20031;-73
2023/07/22 06:45:46;;;;;;;0.00;0.00;;;;;;;15.68;nan;100000.66;4940207;29;20039;-73
2023/07/22 06:48:11;;;;;;;0.00;0.00;;;;;;;15.86;nan;100004.44;4933277;29;20375;-74
2023/07/22 06:50:37;;;;;;;0.00;0.00;;;;;;;15.97;nan;100010.50;4931436;29;20080;-74
2023/07/22 06:53:03;;;;;;;0.00;0.00;;;;;;;16.11;nan;99991.97;4943770;28;20043;-73
2023/07/22 06:55:29;;;;;;;0.00;0.00;;;;;;;16.25;nan;99980.03;4907813;29;20035;-73
2023/07/22 06:57:57;;;;;;;0.00;0.00;;;;;;;16.32;nan;99989.50;4911209;29;20503;-73
2023/07/22 07:00:23;;;;;;;0.00;0.00;;;;;;;16.46;nan;99994.94;4936077;28;20079;-72
2023/07/22 07:02:49;;;;;;;0.00;0.00;;;;;;;16.50;nan;99984.91;4940687;29;20466;-74
2023/07/22 07:05:16;;;;;;;0.00;0.00;;;;;;;16.56;nan;99993.88;4937024;28;20032;-74
2023/07/22 07:07:42;;;;;;;0.00;0.00;;;;;;;16.39;nan;99989.06;4940625;29;20509;-74
2023/07/22 07:10:07;;;;;;;0.00;0.00;;;;;;;16.32;nan;99983.97;4936090;29;20118;-75
2023/07/22 07:12:33;;;;;;;0.00;0.00;;;;;;;16.35;nan;99988.88;4928682;29;20493;-74
2023/07/22 07:14:58;;;;;;;0.00;0.00;;;;;;;16.43;nan;99990.06;4944946;28;20036;-74
2023/07/22 07:17:24;;;;;;;0.00;0.00;;;;;;;16.65;nan;99991.16;4942588;28;20669;-74
2023/07/22 07:19:49;;;;;;;0.00;0.00;;;;;;;16.78;nan;99984.72;4929766;29;20034;-74
2023/07/22 07:22:14;;;;;;;0.00;0.00;;;;;;;16.95;nan;99983.97;4946044;28;20046;-72
2023/07/22 07:24:40;;;;;;;0.00;0.00;;;;;;;17.19;nan;99986.34;4911781;29;20024;-74
2023/07/22 07:27:05;;;;;;;0.00;0.00;;;;;;;17.28;nan;99989.91;4936566;28;20035;-73
2023/07/22 07:29:31;;;;;;;0.00;0.00;;;;;;;17.33;nan;99988.16;4935110;29;20374;-76
2023/07/22 07:31:57;;;;;;;0.00;0.00;;;;;;;17.33;nan;99982.63;4937399;29;20023;-74
2023/07/22 07:34:22;;;;;;;0.00;0.00;;;;;;;17.26;nan;99970.09;4946423;28;20038;-75
2023/07/22 07:36:48;;;;;;;0.00;0.00;;;;;;;17.18;nan;99970.88;4945254;29;20059;-74
2023/07/22 07:39:14;;;;;;;0.00;0.00;;;;;;;17.24;nan;100000.00;4946381;28;20067;-78
2023/07/22 07:41:39;;;;;;;0.00;0.00;;;;;;;17.21;nan;99973.00;4923647;29;20028;-78
2023/07/22 07:44:05;;;;;;;0.00;0.00;;;;;;;17.25;nan;99976.75;4949563;29;20031;-78
2023/07/22 07:46:30;;;;;;;0.00;0.00;;;;;;;17.30;nan;99972.22;4948741;29;20051;-75
2023/07/22 07:49:01;;;;;;;0.00;0.00;;;;;;;17.38;nan;99979.72;4923234;29;20054;-75
2023/07/22 07:51:29;;;;;;;0.00;0.00;;;;;;;17.72;nan;99992.75;4945563;29;20527;-75
2023/07/22 07:53:58;;;;;;;0.00;0.00;;;;;;;17.76;nan;99959.75;4943274;28;20118;-75
2023/07/22 07:56:24;;;;;;;0.00;0.00;;;;;;;18.09;nan;99959.22;4938828;28;20031;-75
2023/07/22 07:58:53;;;;;;;0.00;0.00;;;;;;;18.38;nan;99974.31;4934725;29;20627;-74
2023/07/22 08:01:18;;;;;;;0.00;0.00;;;;;;;18.47;nan;99975.09;4947315;29;20031;-75
2023/07/22 08:03:44;;;;;;;0.00;0.00;;;;;;;18.59;nan;99974.44;4920306;29;20034;-74
2023/07/22 08:06:11;;;;;;;0.00;0.00;;;;;;;18.52;nan;99966.63;4949107;28;20031;-74
2023/07/22 08:08:37;;;;;;;0.00;0.00;;;;;;;18.53;nan;99968.25;4932549;29;20024;-74
2023/07/22 08:11:04;;;;;;;0.00;0.00;;;;;;;18.54;nan;99975.41;4927209;28;20028;-74
2023/07/22 08:13:33;;;;;;;0.00;0.00;;;;;;;18.59;nan;99969.69;4922702;29;20386;-74
2023/07/22 08:16:00;;;;;;;0.00;0.00;;;;;;;18.48;nan;99962.91;4942283;29;20031;-75
2023/07/22 08:18:25;;;;;;;0.00;0.00;;;;;;;18.48;nan;99960.13;4918926;29;20032;-74
2023/07/22 08:20:54;;;;;;;0.00;0.00;;;;;;;18.62;nan;99957.97;4935837;28;20126;-74
2023/07/22 08:23:20;;;;;;;0.00;0.00;;;;;;;18.67;nan;99957.78;4933717;28;20071;-73
2023/07/22 08:25:46;;;;;;;0.00;0.00;;;;;;;18.63;nan;99948.50;4946986;29;20026;-74
2023/07/22 08:28:11;;;;;;;0.00;0.00;;;;;;;18.60;nan;99938.09;4935205;29;20027;-74
2023/07/22 08:30:38;;;;;;;0.00;0.00;;;;;;;18.85;nan;99949.38;4940761;28;20129;-74
2023/07/22 08:33:03;;;;;;;0.00;0.00;;;;;;;18.93;nan;99948.56;4922628;29;20040;-74
2023/07/22 08:35:29;;;;;;;0.00;0.00;;;;;;;18.76;nan;99948.63;4935284;28;20039;-73
2023/07/22 08:37:54;;;;;;;0.00;0.00;;;;;;;18.68;nan;99944.75;4931539;29;20034;-74
2023/07/22 08:40:20;;;;;;;0.00;0.00;;;;;;;18.72;nan;99939.34;4933386;28;20059;-75
2023/07/22 08:42:48;;;;;;;0.00;0.00;;;;;;;18.58;nan;99954.22;4950253;29;20129;-74
2023/07/22 08:45:14;;;;;;;0.00;0.00;;;;;;;18.23;nan;99939.69;4924076;29;20030;-75
2023/07/22 08:47:46;;;;;;;0.00;0.00;;;;;;;17.86;nan;99934.50;4947110;29;20050;-75
2023/07/22 08:50:19;;;;;;;0.00;0.00;;;;;;;17.57;nan;99933.22;4919408;29;20039;-74
2023/07/22 08:52:46;;;;;;;0.00;0.00;;;;;;;17.41;nan;99929.31;4936798;29;20032;-75
2023/07/22 08:55:12;;;;;;;0.00;0.00;;;;;;;17.05;nan;99935.91;4931653;29;20051;-74
2023/07/22 08:57:39;;;;;;;0.00;0.00;;;;;;;16.64;nan;99917.75;4926977;29;20118;-74
2023/07/22 09:00:06;;;;;;;0.00;0.00;;;;;;;16.13;nan;99925.44;4952044;29;20046;-73
2023/07/22 09:02:35;;;;;;;0.00;0.00;;;;;;;15.75;nan;99937.66;4948443;29;20119;-74
2023/07/22 09:05:02;;;;;;;0.00;0.00;;;;;;;15.50;nan;99928.84;4946646;29;20375;-75
2023/07/22 09:07:28;;;;;;;0.00;0.00;;;;;;;15.39;nan;99934.91;4940375;28;20099;-75
2023/07/22 09:09:56;;;;;;;0.00;0.00;;;;;;;15.37;nan;99932.47;4929265;29;20024;-74
2023/07/22 09:12:22;;;;;;;0.00;0.00;;;;;;;15.14;nan;99921.41;4906650;29;20102;-73
2023/07/22 09:14:50;;;;;;;0.00;0.00;;;;;;;14.91;nan;99925.19;4935113;29;20470;-74
2023/07/22 09:17:15;;;;;;;0.00;0.00;;;;;;;14.88;nan;99932.16;4915732;29;20433;-75
2023/07/22 09:19:41;;;;;;;0.00;0.00;;;;;;;14.68;nan;99930.63;4925015;29;20130;-74
2023/07/22 09:22:07;;;;;;;0.00;0.00;;;;;;;14.52;nan;99937.53;4928908;29;20063;-74
2023/07/22 09:24:33;;;;;;;0.00;0.00;;;;;;;14.23;nan;99933.09;4931127;29;20487;-74
2023/07/22 09:26:59;;;;;;;0.00;0.00;;;;;;;14.17;nan;99928.81;4905922;29;20038;-73
2023/07/22 09:29:35;;;;;;;0.00;0.00;;;;;;;14.23;nan;99939.41;4919398;29;20122;-75
2023/07/22 09:32:01;;;;;;;0.00;0.00;;;;;;;14.34;nan;99939.22;4934567;29;20394;-74
2023/07/22 09:34:27;;;;;;;0.00;0.00;;;;;;;14.35;nan;99930.66;4931674;29;20020;-74
2023/07/22 09:36:57;;;;;;;0.00;0.00;;;;;;;14.29;nan;99931.88;4926563;29;20114;-73
2023/07/22 09:39:24;;;;;;;0.00;0.00;;;;;;;14.20;nan;99939.22;4934668;29;20141;-74
2023/07/22 09:41:50;;;;;;;0.00;0.00;;;;;;;14.12;nan;99927.78;4939057;28;20070;-74
2023/07/22 09:44:17;;;;;;;0.00;0.00;;;;;;;14.16;nan;99933.47;4933078;29;20107;-74
2023/07/22 09:46:47;;;;;;;0.00;0.00;;;;;;;14.16;nan;99935.41;4932811;29;20554;-74
2023/07/22 09:49:13;;;;;;;0.00;0.00;;;;;;;14.18;nan;99930.41;4925856;28;20080;-73
2023/07/22 09:51:40;;;;;;;0.00;0.00;;;;;;;14.16;nan;99938.97;4923974;28;20032;-74
2023/07/22 09:54:06;;;;;;;0.00;0.00;;;;;;;14.16;nan;99932.66;4946012;29;20039;-74
2023/07/22 09:56:42;;;;;;;0.00;0.00;;;;;;;14.21;nan;99929.84;4925412;29;20023;-73
2023/07/22 09:59:09;;;;;;;0.00;0.00;;;;;;;14.41;nan;99923.97;4935610;29;20024;-74
2023/07/22 10:01:37;;;;;;;0.00;0.00;;;;;;;14.52;nan;99919.06;4949878;29;20044;-74
2023/07/22 10:04:04;;;;;;;0.00;0.00;;;;;;;14.71;nan;99921.75;4919820;29;20031;-77
2023/07/22 10:06:31;;;;;;;0.00;0.00;;;;;;;14.86;nan;99928.06;4949115;28;20032;-75
2023/07/22 10:09:02;;;;;;;0.00;0.00;;;;;;;14.97;nan;99926.75;4933507;28;20034;-74
2023/07/22 10:11:28;;;;;;;0.00;0.00;;;;;;;15.13;nan;99916.22;4945555;28;20030;-74
2023/07/22 10:13:55;;;;;;;0.00;0.00;;;;;;;15.23;nan;99926.19;4935929;29;20027;-74
2023/07/22 10:16:22;;;;;;;0.00;0.00;;;;;;;15.11;nan;99913.78;4940602;29;20023;-75
2023/07/22 10:18:48;;;;;;;0.00;0.00;;;;;;;15.00;nan;99912.38;4929156;28;20030;-74
2023/07/22 10:21:14;;;;;;;0.00;0.00;;;;;;;14.80;nan;99913.59;4928173;29;20027;-75
2023/07/22 10:23:40;;;;;;;0.00;0.00;;;;;;;14.77;nan;99909.53;4951549;29;20018;-74
2023/07/22 10:26:06;;;;;;;0.00;0.00;;;;;;;14.61;nan;99913.69;4921713;29;20046;-74
2023/07/22 10:28:35;;;;;;;0.00;0.00;;;;;;;14.53;nan;99903.38;4943323;28;20079;-75
2023/07/22 10:31:00;;;;;;;0.00;0.00;;;;;;;14.40;nan;99900.31;4916245;29;20036;-73
2023/07/22 10:33:26;;;;;;;0.00;0.00;;;;;;;14.51;nan;99916.63;4932349;29;20445;-73
2023/07/22 10:36:13;;;;;;;0.00;0.00;;;;;;;14.57;nan;99921.75;4931257;29;20059;-75
2023/07/22 10:38:38;;;;;;;0.00;0.00;;;;;;;14.54;nan;99913.25;4932059;28;20027;-74
2023/07/22 10:41:16;;;;;;;0.00;0.00;;;;;;;14.55;nan;99917.66;4929327;29;20371;-74
2023/07/22 10:43:54;;;;;;;0.00;0.00;;;;;;;14.55;nan;99906.66;4942058;28;20024;-74
2023/07/22 10:46:32;;;;;;;0.00;0.00;;;;;;;14.67;nan;99909.72;4937830;29;20042;-75
2023/07/22 10:49:11;;;;;;;0.00;0.00;;;;;;;14.79;nan;99907.28;4932693;29;20024;-75
2023/07/22 10:51:37;;;;;;;0.00;0.00;;;;;;;14.93;nan;99911.97;4949534;28;20473;-74
2023/07/22 10:54:10;;;;;;;0.00;0.00;;;;;;;14.85;nan;99908.00;4934561;29;20024;-75
2023/07/22 10:56:36;;;;;;;0.00;0.00;;;;;;;14.66;nan;99903.41;4937383;28;20028;-74
2023/07/22 10:59:02;;;;;;;0.00;0.00;;;;;;;14.74;nan;99890.06;4936527;29;20466;-75
2023/07/22 11:01:28;;;;;;;0.00;0.00;;;;;;;14.87;nan;99880.16;4920480;28;20853;-74
2023/07/22 11:04:31;;;;;;;0.00;0.00;;;;;;;14.59;nan;99877.41;4944449;28;20110;-73
2023/07/22 11:07:04;;;;;;;0.00;0.00;;;;;;;14.58;nan;99886.78;4934046;29;20454;-74
2023/07/22 11:09:30;;;;;;;0.00;0.00;;;;;;;14.58;nan;99873.03;4941340;28;20028;-74
2023/07/22 11:11:58;;;;;;;0.00;0.00;;;;;;;14.48;nan;99869.38;4950003;29;20050;-74
2023/07/22 11:14:26;;;;;;;0.00;0.00;;;;;;;14.42;nan;99851.31;4921580;29;20047;-75
2023/07/22 11:16:52;;;;;;;0.00;0.00;;;;;;;14.31;nan;99869.97;4938958;29;20020;-74
2023/07/22 11:19:20;;;;;;;0.00;0.00;;;;;;;14.03;nan;99825.13;4945411;29;20027;-76
2023/07/22 11:21:48;;;;;;;0.00;0.00;;;;;;;14.26;nan;99855.50;4937880;29;20031;-75
2023/07/22 11:24:15;;;;;;;0.00;0.00;;;;;;;14.38;nan;99842.03;4953097;28;20035;-75
2023/07/22 11:26:41;;;;;;;0.00;0.00;;;;;;;14.56;nan;99842.22;4916120;29;20031;-76
2023/07/22 11:29:08;;;;;;;0.00;0.00;;;;;;;14.69;nan;99846.97;4919197;28;20043;-76
2023/07/22 11:31:42;;;;;;;0.00;0.00;;;;;;;14.68;nan;99823.31;4953514;29;20235;-76
2023/07/22 11:34:14;;;;;;;0.00;0.00;;;;;;;14.69;nan;99837.88;4922915;29;20188;-76
2023/07/22 11:36:40;;;;;;;0.00;0.00;;;;;;;14.71;nan;99832.88;4935836;29;20039;-76
2023/07/22 11:39:06;;;;;;;0.00;0.00;;;;;;;14.81;nan;99827.97;4937910;29;20130;-75
2023/07/22 11:41:32;;;;;;;0.00;0.00;;;;;;;14.89;nan;99820.09;4953458;29;20034;-76
2023/07/22 11:44:01;;;;;;;0.00;0.00;;;;;;;15.07;nan;99829.31;4933359;29;20027;-76